createdAt,value
2018-07-26T00:01:48.062Z,25.10
2018-07-26T00:04:16.649Z,25.10
2018-07-26T00:06:46.646Z,25.10
2018-07-26T00:09:16.329Z,25.00
2018-07-26T00:11:46.725Z,24.90
2018-07-26T00:14:26.771Z,24.90
2018-07-26T00:16:58.045Z,24.90
2018-07-26T00:19:34.633Z,24.90
2018-07-26T00:22:12.393Z,24.90
2018-07-26T00:24:53.221Z,24.90
2018-07-26T00:27:24.862Z,24.80
2018-07-26T00:29:55.622Z,24.80
2018-07-26T00:32:32.100Z,24.80
2018-07-26T00:35:14.829Z,24.80
2018-07-26T00:37:49.362Z,24.70
2018-07-26T00:40:22.536Z,24.70
2018-07-26T00:42:58.830Z,24.70
2018-07-26T00:45:37.454Z,24.70
2018-07-26T00:48:13.049Z,24.70
2018-07-26T00:50:51.569Z,24.60
2018-07-26T00:53:32.334Z,24.60
2018-07-26T00:56:14.591Z,24.60
2018-07-26T00:58:52.353Z,24.60
2018-07-26T01:01:33.934Z,24.50
2018-07-26T01:04:05.266Z,24.50
2018-07-26T01:06:43.158Z,24.50
2018-07-26T01:09:22.381Z,24.50
2018-07-26T01:11:51.826Z,24.50
2018-07-26T01:14:21.779Z,24.50
2018-07-26T01:16:50.950Z,24.50
2018-07-26T01:19:21.360Z,24.40
2018-07-26T01:21:51.237Z,24.40
2018-07-26T01:24:20.288Z,24.50
2018-07-26T01:26:51.906Z,24.40
2018-07-26T01:29:24.539Z,24.50
2018-07-26T01:32:00.644Z,24.40
2018-07-26T01:34:30.157Z,24.40
2018-07-26T01:36:59.270Z,24.40
2018-07-26T01:39:29.977Z,24.40
2018-07-26T01:42:11.137Z,24.30
2018-07-26T01:44:47.077Z,24.40
2018-07-26T01:47:20.515Z,24.30
2018-07-26T01:49:51.217Z,24.30
2018-07-26T01:52:20.681Z,24.30
2018-07-26T01:54:54.020Z,24.20
2018-07-26T01:57:30.057Z,24.20
2018-07-26T02:00:06.172Z,24.20
2018-07-26T02:02:40.731Z,24.20
2018-07-26T02:05:12.506Z,24.20
2018-07-26T02:07:46.218Z,24.20
2018-07-26T02:10:16.751Z,24.10
2018-07-26T02:12:46.877Z,24.10
2018-07-26T02:15:35.298Z,24.10
2018-07-26T02:23:49.485Z,24.00
2018-07-26T02:26:18.893Z,24.00
2018-07-26T02:28:50.325Z,24.00
2018-07-26T02:31:22.883Z,23.00
2018-07-26T02:33:54.201Z,24.00
2018-07-26T02:36:29.945Z,24.00
2018-07-26T02:41:59.690Z,24.00
2018-07-26T02:44:40.902Z,24.00
2018-07-26T02:47:24.710Z,24.00
2018-07-26T02:50:04.148Z,23.90
2018-07-26T02:52:46.659Z,23.90
2018-07-26T02:55:24.257Z,23.90
2018-07-26T02:58:02.463Z,23.90
2018-07-26T03:00:41.717Z,23.90
2018-07-26T03:03:18.694Z,23.90
2018-07-26T03:05:56.478Z,23.90
2018-07-26T03:08:33.152Z,23.80
2018-07-26T03:11:17.209Z,23.80
2018-07-26T03:13:52.951Z,23.80
2018-07-26T03:16:30.547Z,23.80
2018-07-26T03:19:08.145Z,23.80
2018-07-26T03:21:46.963Z,23.80
2018-07-26T03:24:25.802Z,23.80
2018-07-26T03:27:08.604Z,23.80
2018-07-26T03:29:46.507Z,23.80
2018-07-26T03:32:34.284Z,24.80
2018-07-26T03:35:14.299Z,23.70
2018-07-26T03:37:50.970Z,23.70
2018-07-26T03:40:38.396Z,23.70
2018-07-26T03:43:19.987Z,23.70
2018-07-26T03:46:00.341Z,23.70
2018-07-26T03:48:41.321Z,23.60
2018-07-26T03:51:22.323Z,23.60
2018-07-26T03:53:59.584Z,23.60
2018-07-26T03:56:37.796Z,23.60
2018-07-26T03:59:15.689Z,23.50
2018-07-26T04:01:52.055Z,23.50
2018-07-26T04:04:32.422Z,23.50
2018-07-26T04:07:13.709Z,23.50
2018-07-26T04:09:50.994Z,23.50
2018-07-26T04:12:38.114Z,23.50
2018-07-26T04:15:27.384Z,23.50
2018-07-26T04:18:08.351Z,23.40
2018-07-26T04:20:45.942Z,23.40
2018-07-26T04:23:23.236Z,23.40
2018-07-26T04:25:58.411Z,23.40
2018-07-26T04:28:36.578Z,23.40
2018-07-26T04:31:14.479Z,23.40
2018-07-26T04:33:51.114Z,23.30
2018-07-26T04:36:30.292Z,23.40
2018-07-26T04:39:07.577Z,23.40
2018-07-26T04:41:44.245Z,23.30
2018-07-26T04:44:20.612Z,23.30
2018-07-26T04:46:59.129Z,23.30
2018-07-26T04:49:36.417Z,23.30
2018-07-26T04:52:14.017Z,23.30
2018-07-26T04:54:51.608Z,23.30
2018-07-26T04:57:30.430Z,23.30
2018-07-26T04:59:58.979Z,23.30
2018-07-26T05:02:27.503Z,23.30
2018-07-26T05:04:56.124Z,23.40
2018-07-26T05:07:24.649Z,23.40
2018-07-26T05:09:53.165Z,23.40
2018-07-26T05:12:21.709Z,23.40
2018-07-26T05:14:50.588Z,23.40
2018-07-26T05:17:19.131Z,23.40
2018-07-26T05:19:48.152Z,23.40
2018-07-26T05:22:16.675Z,23.40
2018-07-26T05:24:45.190Z,23.40
2018-07-26T05:27:13.712Z,23.40
2018-07-26T05:29:42.225Z,23.50
2018-07-26T05:32:11.906Z,23.70
2018-07-26T05:34:40.477Z,23.80
2018-07-26T05:37:09.089Z,23.90
2018-07-26T05:39:37.585Z,24.00
2018-07-26T05:42:06.090Z,24.10
2018-07-26T05:44:34.617Z,24.10
2018-07-26T05:47:03.139Z,24.10
2018-07-26T05:49:31.737Z,24.10
2018-07-26T05:52:00.246Z,24.00
2018-07-26T05:54:28.753Z,23.90
2018-07-26T05:56:57.286Z,23.80
2018-07-26T05:59:25.804Z,23.80
2018-07-26T06:01:54.385Z,23.80
2018-07-26T06:04:30.622Z,23.70
2018-07-26T06:07:00.594Z,23.70
2018-07-26T06:09:29.114Z,23.80
2018-07-26T06:11:59.043Z,23.70
2018-07-26T06:14:27.565Z,23.80
2018-07-26T06:16:56.085Z,23.80
2018-07-26T06:19:24.623Z,23.80
2018-07-26T06:21:53.157Z,23.80
2018-07-26T06:24:26.695Z,23.80
2018-07-26T06:26:56.839Z,23.80
2018-07-26T06:29:25.359Z,23.90
2018-07-26T06:31:54.676Z,23.90
2018-07-26T07:56:22.849Z,23.90
2018-07-26T07:58:51.378Z,27.10
2018-07-26T08:01:19.908Z,27.20
2018-07-26T08:03:48.427Z,27.20
2018-07-26T08:06:19.142Z,27.30
2018-07-26T08:08:47.697Z,27.30
2018-07-26T08:11:17.419Z,27.30
2018-07-26T08:13:45.939Z,27.30
2018-07-26T08:16:14.457Z,27.40
2018-07-26T08:18:43.138Z,27.50
2018-07-26T08:21:12.289Z,27.60
2018-07-26T08:23:40.849Z,27.60
2018-07-26T08:51:57.963Z,27.60
2018-07-26T08:54:26.531Z,28.30
2018-07-26T08:56:55.053Z,28.50
2018-07-26T08:59:24.091Z,28.60
2018-07-26T09:01:52.629Z,28.80
2018-07-26T09:04:21.251Z,28.90
2018-07-26T09:06:49.913Z,29.00
2018-07-26T09:09:20.315Z,29.10
2018-07-26T09:11:49.978Z,29.20
2018-07-26T09:14:18.956Z,29.20
2018-07-26T09:16:47.556Z,29.20
2018-07-26T09:19:17.813Z,29.20
2018-07-26T09:21:46.415Z,29.20
2018-07-26T09:24:15.006Z,29.30
2018-07-26T09:26:43.581Z,29.30
2018-07-26T09:29:12.190Z,29.40
2018-07-26T09:31:42.325Z,29.50
2018-07-26T09:34:11.406Z,29.60
2018-07-26T09:36:39.962Z,29.70
2018-07-26T09:39:12.593Z,29.90
2018-07-26T09:41:41.193Z,29.90
2018-07-26T09:44:10.602Z,27.30
2018-07-26T09:46:39.233Z,29.80
2018-07-26T09:49:08.478Z,29.80
2018-07-26T09:51:38.466Z,29.90
2018-07-26T09:54:07.138Z,30.00
2018-07-26T09:56:36.029Z,30.10
2018-07-26T09:59:04.659Z,30.30
2018-07-26T10:01:34.925Z,30.40
2018-07-26T10:04:03.737Z,30.40
2018-07-26T10:06:33.119Z,30.50
2018-07-26T10:09:03.469Z,30.50
2018-07-26T10:11:35.629Z,30.70
2018-07-26T10:14:04.315Z,30.70
2018-07-26T10:16:32.933Z,30.90
2018-07-26T10:19:01.635Z,31.00
2018-07-26T10:21:31.949Z,31.00
2018-07-26T10:24:00.495Z,31.00
2018-07-26T10:26:29.056Z,31.10
2018-07-26T10:28:57.932Z,31.20
2018-07-26T10:31:26.437Z,31.20
2018-07-26T10:33:54.957Z,31.40
2018-07-26T10:36:23.685Z,31.40
2018-07-26T10:38:52.220Z,31.50
2018-07-26T10:41:20.785Z,31.60
2018-07-26T10:43:49.372Z,31.70
2018-07-26T10:46:20.994Z,31.80
2018-07-26T10:48:49.850Z,31.90
2018-07-26T10:51:18.615Z,32.00
2018-07-26T10:53:47.154Z,32.10
2018-07-26T10:56:15.677Z,32.10
2018-07-26T10:58:44.213Z,32.20
2018-07-26T11:01:12.807Z,32.20
2018-07-26T11:03:41.402Z,32.30
2018-07-26T11:06:09.905Z,32.60
2018-07-26T11:08:38.405Z,32.70
2018-07-26T11:11:07.250Z,32.80
2018-07-26T11:13:35.789Z,32.80
2018-07-26T11:16:04.646Z,32.90
2018-07-26T11:18:33.169Z,32.90
2018-07-26T11:21:02.261Z,33.10
2018-07-26T11:23:30.773Z,33.20
2018-07-26T11:25:59.329Z,33.20
2018-07-26T11:28:28.460Z,33.30
2018-07-26T11:30:57.869Z,33.50
2018-07-26T11:33:26.979Z,33.50
2018-07-26T11:35:55.548Z,33.70
2018-07-26T11:38:24.029Z,33.90
2018-07-26T11:40:52.539Z,33.90
2018-07-26T11:43:21.329Z,34.00
2018-07-26T11:45:49.898Z,34.10
2018-07-26T11:48:19.337Z,34.20
2018-07-26T11:50:47.927Z,34.20
2018-07-26T11:53:16.453Z,34.20
2018-07-26T11:55:44.998Z,34.30
2018-07-26T11:58:13.518Z,34.20
2018-07-26T12:00:42.106Z,34.30
2018-07-26T12:03:10.763Z,34.30
2018-07-26T12:05:39.308Z,34.30
2018-07-26T12:08:08.045Z,34.30
2018-07-26T12:10:36.600Z,34.40
2018-07-26T12:13:05.145Z,34.50
2018-07-26T12:15:34.369Z,34.70
2018-07-26T12:18:02.907Z,34.80
2018-07-26T12:20:31.484Z,34.80
2018-07-26T12:23:00.029Z,34.80
2018-07-26T12:25:28.828Z,34.90
2018-07-26T12:27:57.373Z,35.00
2018-07-26T12:30:26.014Z,35.00
2018-07-26T12:32:54.728Z,35.00
2018-07-26T12:35:23.236Z,35.10
2018-07-26T12:37:51.749Z,35.20
2018-07-26T12:40:20.289Z,35.30
2018-07-26T12:42:48.797Z,35.40
2018-07-26T12:45:18.785Z,35.60
2018-07-26T12:47:47.917Z,35.70
2018-07-26T12:50:16.501Z,35.80
2018-07-26T12:52:45.807Z,36.00
2018-07-26T12:55:14.391Z,36.00
2018-07-26T12:57:44.744Z,36.10
2018-07-26T13:00:15.082Z,36.10
2018-07-26T13:02:45.789Z,36.20
2018-07-26T13:05:14.313Z,36.30
2018-07-26T13:07:42.867Z,36.10
2018-07-26T13:10:13.291Z,36.10
2018-07-26T13:12:44.680Z,36.30
2018-07-26T13:15:19.291Z,36.30
2018-07-26T13:17:48.962Z,36.30
2018-07-26T13:20:27.909Z,36.30
2018-07-26T13:23:03.612Z,36.50
2018-07-26T13:25:32.142Z,36.50
2018-07-26T13:28:03.947Z,36.50
2018-07-26T13:30:33.132Z,36.50
2018-07-26T13:33:02.378Z,36.50
2018-07-26T13:35:30.933Z,36.40
2018-07-26T13:38:00.431Z,36.50
2018-07-26T13:40:29.032Z,36.50
2018-07-26T13:43:01.781Z,36.60
2018-07-26T13:45:30.353Z,36.70
2018-07-26T13:47:58.885Z,36.80
2018-07-26T13:50:30.167Z,36.90
2018-07-26T13:53:01.970Z,36.90
2018-07-26T13:55:31.630Z,36.90
2018-07-26T13:58:02.649Z,36.90
2018-07-26T14:00:32.620Z,37.00
2018-07-26T14:03:01.762Z,36.90
2018-07-26T14:05:30.533Z,36.90
2018-07-26T14:07:59.523Z,36.90
2018-07-26T14:10:28.929Z,36.90
2018-07-26T14:12:57.909Z,36.90
2018-07-26T14:15:26.795Z,36.70
2018-07-26T14:17:55.292Z,36.50
2018-07-26T14:20:23.886Z,36.40
2018-07-26T14:22:53.008Z,36.00
2018-07-26T14:25:23.013Z,35.80
2018-07-26T14:27:51.655Z,35.50
2018-07-26T14:30:25.636Z,35.40
2018-07-26T14:32:54.170Z,35.20
2018-07-26T14:35:22.846Z,35.00
2018-07-26T14:37:53.871Z,34.90
2018-07-26T14:40:22.683Z,34.90
2018-07-26T14:42:51.813Z,34.90
2018-07-26T14:45:21.126Z,34.90
2018-07-26T14:47:53.192Z,34.80
2018-07-26T14:50:26.394Z,34.80
2018-07-26T14:52:55.777Z,34.80
2018-07-26T14:55:29.008Z,34.80
2018-07-26T14:58:01.889Z,34.70
2018-07-26T15:00:30.570Z,34.70
2018-07-26T15:02:59.246Z,34.60
2018-07-26T15:05:28.671Z,34.60
2018-07-26T15:07:57.800Z,34.60
2018-07-26T15:10:26.382Z,34.50
2018-07-26T15:12:55.215Z,34.50
2018-07-26T15:15:27.730Z,34.50
2018-07-26T15:17:56.754Z,34.50
2018-07-26T15:20:26.274Z,34.40
2018-07-26T15:22:57.483Z,34.50
2018-07-26T15:25:27.175Z,34.50
2018-07-26T15:27:57.481Z,34.30
2018-07-26T15:30:31.803Z,34.40
2018-07-26T15:33:06.405Z,32.70
2018-07-26T15:35:41.600Z,34.60
2018-07-26T15:38:12.445Z,34.70
2018-07-26T15:40:50.827Z,34.70
2018-07-26T15:43:20.311Z,34.70
2018-07-26T15:45:48.895Z,34.70
2018-07-26T15:48:19.330Z,34.70
2018-07-26T15:50:48.096Z,34.80
2018-07-26T15:53:16.672Z,33.20
2018-07-26T15:55:45.353Z,34.80
2018-07-26T15:58:15.266Z,34.80
2018-07-26T16:00:43.805Z,34.80
2018-07-26T16:03:13.150Z,34.80
2018-07-26T16:05:41.718Z,34.70
2018-07-26T16:08:10.325Z,34.70
2018-07-26T16:10:39.337Z,34.60
2018-07-26T16:13:08.431Z,34.60
2018-07-26T16:15:37.000Z,34.50
2018-07-26T16:18:06.163Z,34.50
2018-07-26T16:20:48.518Z,34.40
2018-07-26T16:23:29.189Z,34.40
2018-07-26T16:26:09.236Z,34.30
2018-07-26T16:28:48.780Z,34.30
2018-07-26T16:31:33.064Z,34.30
2018-07-26T16:34:13.701Z,33.80
2018-07-26T16:36:51.905Z,34.40
2018-07-26T16:39:29.806Z,34.40
2018-07-26T16:42:10.472Z,34.40
2018-07-26T16:44:51.520Z,34.40
2018-07-26T16:47:20.305Z,34.40
2018-07-26T16:49:48.830Z,34.40
2018-07-26T16:52:17.427Z,34.50
2018-07-26T16:54:49.393Z,34.50
2018-07-26T16:57:17.914Z,34.60
2018-07-26T16:59:46.718Z,34.60
2018-07-26T17:02:15.445Z,34.60
2018-07-26T17:04:44.048Z,34.50
2018-07-26T17:07:13.027Z,34.50
2018-07-26T17:09:41.753Z,34.50
2018-07-26T17:12:10.910Z,34.50
2018-07-26T17:14:40.494Z,34.50
2018-07-26T17:19:43.446Z,34.40
2018-07-26T17:22:12.050Z,34.30
2018-07-26T17:24:40.573Z,34.20
2018-07-26T17:27:09.103Z,34.10
2018-07-26T17:29:37.653Z,33.90
2018-07-26T17:32:06.218Z,33.90
2018-07-26T17:34:35.914Z,33.80
2018-07-26T17:37:04.608Z,33.70
2018-07-26T17:39:33.137Z,33.70
2018-07-26T17:42:01.683Z,33.70
2018-07-26T17:44:30.249Z,33.60
2018-07-26T17:46:58.820Z,33.60
2018-07-26T17:49:27.333Z,33.50
2018-07-26T17:51:55.889Z,33.50
2018-07-26T17:54:24.454Z,33.40
2018-07-26T17:56:53.047Z,33.40
2018-07-26T17:59:21.560Z,33.30
2018-07-26T18:01:50.104Z,33.20
2018-07-26T18:04:19.530Z,33.20
2018-07-26T18:06:48.998Z,33.20
2018-07-26T18:09:17.544Z,33.20
2018-07-26T18:11:46.127Z,33.20
2018-07-26T18:14:14.673Z,33.10
2018-07-26T18:16:43.193Z,33.10
2018-07-26T18:19:12.002Z,33.20
2018-07-26T18:21:40.641Z,33.20
2018-07-26T18:24:09.270Z,33.30
2018-07-26T18:26:37.942Z,33.30
2018-07-26T18:29:10.872Z,33.30
2018-07-26T18:31:43.198Z,33.10
2018-07-26T18:34:13.726Z,33.10
2018-07-26T18:36:43.087Z,32.70
2018-07-26T18:39:13.909Z,32.40
2018-07-26T18:41:43.951Z,32.10
2018-07-26T18:44:16.086Z,31.90
2018-07-26T18:46:50.389Z,31.70
2018-07-26T18:49:22.000Z,31.60
2018-07-26T18:51:55.397Z,31.50
2018-07-26T18:57:24.207Z,31.10
2018-07-26T18:59:55.682Z,31.00
2018-07-26T19:02:26.761Z,31.00
2018-07-26T19:04:55.286Z,30.90
2018-07-26T19:07:23.913Z,31.00
2018-07-26T19:09:53.730Z,31.00
2018-07-26T19:12:25.192Z,30.90
2018-07-26T19:15:02.508Z,31.00
2018-07-26T19:17:33.893Z,30.90
2018-07-26T19:20:04.586Z,30.80
2018-07-26T19:22:39.801Z,30.80
2018-07-26T19:25:10.531Z,30.80
2018-07-26T19:27:41.637Z,30.70
2018-07-26T19:30:14.331Z,30.60
2018-07-26T19:32:42.867Z,30.50
2018-07-26T19:35:11.937Z,30.40
2018-07-26T19:37:40.512Z,30.30
2018-07-26T19:40:10.350Z,30.10
2018-07-26T19:42:41.898Z,29.90
2018-07-26T19:45:18.343Z,29.70
2018-07-26T19:47:54.025Z,29.60
2018-07-26T19:50:27.024Z,27.80
2018-07-26T19:53:03.965Z,29.30
2018-07-26T19:55:42.609Z,29.20
2018-07-26T19:58:11.813Z,29.10
2018-07-26T20:00:41.629Z,29.00
2018-07-26T20:03:13.859Z,28.90
2018-07-26T20:05:42.414Z,28.80
2018-07-26T20:08:10.912Z,28.60
2018-07-26T20:10:48.742Z,28.50
2018-07-26T20:13:20.947Z,28.40
2018-07-26T20:15:54.765Z,28.30
2018-07-26T20:18:28.941Z,28.30
2018-07-26T20:21:00.948Z,28.20
2018-07-26T20:23:36.937Z,28.10
2018-07-26T20:26:10.798Z,28.10
2018-07-26T20:28:39.645Z,28.90
2018-07-26T20:31:10.476Z,27.90
2018-07-26T20:33:40.271Z,27.80
2018-07-26T20:36:16.373Z,27.80
2018-07-26T20:38:46.715Z,27.80
2018-07-26T20:41:16.679Z,27.80
2018-07-26T20:43:49.378Z,27.80
2018-07-26T20:46:23.042Z,27.70
2018-07-26T20:48:52.321Z,27.70
2018-07-26T20:51:22.189Z,27.70
2018-07-26T20:53:59.040Z,27.60
2018-07-26T20:56:29.538Z,27.60
2018-07-26T20:58:58.106Z,27.60
2018-07-26T21:01:26.638Z,27.60
2018-07-26T21:03:55.176Z,27.60
2018-07-26T21:06:23.686Z,27.60
2018-07-26T21:08:52.219Z,27.60
2018-07-26T21:11:20.802Z,27.50
2018-07-26T21:13:49.372Z,27.60
2018-07-26T21:16:18.154Z,27.50
2018-07-26T21:18:46.680Z,27.50
2018-07-26T21:21:15.406Z,27.50
2018-07-26T21:23:43.925Z,27.50
2018-07-26T21:26:12.442Z,27.40
2018-07-26T21:28:40.990Z,27.40
2018-07-26T21:31:09.517Z,27.40
2018-07-26T21:33:38.111Z,27.40
2018-07-26T21:36:06.592Z,27.40
2018-07-26T21:38:35.114Z,27.50
2018-07-26T21:41:03.680Z,27.50
2018-07-26T21:43:32.297Z,27.50
2018-07-26T21:46:00.828Z,27.50
2018-07-26T21:48:29.368Z,27.40
2018-07-26T21:50:58.722Z,27.40
2018-07-26T21:53:27.250Z,27.50
2018-07-26T21:55:55.762Z,27.50
2018-07-26T21:58:24.301Z,27.50
2018-07-26T22:00:56.792Z,27.50
2018-07-26T22:03:25.850Z,27.50
2018-07-26T22:05:54.889Z,27.50
2018-07-26T22:08:23.442Z,27.50
2018-07-26T22:10:52.009Z,27.40
2018-07-26T22:13:21.095Z,27.40
2018-07-26T22:15:50.846Z,27.40
2018-07-26T22:18:19.483Z,27.40
2018-07-26T22:20:48.033Z,27.50
2018-07-26T22:23:16.723Z,27.50
2018-07-26T22:25:47.682Z,27.40
2018-07-26T22:28:16.637Z,27.40
2018-07-26T22:30:45.669Z,27.40
2018-07-26T22:33:14.204Z,27.40
2018-07-26T22:35:43.298Z,27.40
2018-07-26T22:38:12.489Z,27.40
2018-07-26T22:40:40.996Z,27.30
2018-07-26T22:43:09.504Z,27.30
2018-07-26T22:45:38.367Z,27.30
2018-07-26T22:48:07.033Z,27.20
2018-07-26T22:50:35.611Z,27.20
2018-07-26T22:53:04.117Z,27.20
2018-07-26T22:55:32.646Z,27.20
2018-07-26T22:58:01.157Z,27.20
2018-07-26T23:00:30.001Z,27.20
2018-07-26T23:02:58.528Z,27.30
2018-07-26T23:05:27.145Z,27.30
2018-07-26T23:07:55.713Z,27.30
2018-07-26T23:10:24.243Z,27.30
2018-07-26T23:12:52.781Z,27.30
2018-07-26T23:15:21.356Z,27.30
2018-07-26T23:17:49.855Z,27.30
2018-07-26T23:20:18.376Z,27.30
2018-07-26T23:22:51.161Z,27.30
2018-07-26T23:25:19.889Z,27.30
2018-07-26T23:27:48.413Z,27.30
2018-07-26T23:30:16.924Z,27.20
2018-07-26T23:32:45.449Z,27.20
2018-07-26T23:35:13.965Z,27.20
2018-07-26T23:37:42.513Z,27.20
2018-07-26T23:40:12.161Z,27.10
2018-07-26T23:42:41.185Z,27.10
2018-07-26T23:45:09.748Z,27.10
2018-07-26T23:47:38.270Z,27.00
2018-07-26T23:50:06.820Z,27.00
2018-07-26T23:52:35.334Z,26.90
2018-07-26T23:55:03.841Z,26.90
2018-07-26T23:57:32.354Z,26.80
